createdAt,value
2024-02-23T00:00:48.199Z,37.20
2024-02-23T00:03:15.844Z,38.04
2024-02-23T00:05:43.179Z,37.61
2024-02-23T00:08:10.902Z,38.46
2024-02-23T00:10:38.549Z,39.22
2024-02-23T00:13:05.757Z,39.06
2024-02-23T00:15:33.763Z,39.15
2024-02-23T00:18:01.386Z,38.45
2024-02-23T00:20:28.928Z,38.59
2024-02-23T00:22:56.295Z,38.92
2024-02-23T00:25:24.403Z,38.05
2024-02-23T00:27:51.698Z,37.35
2024-02-23T00:30:19.056Z,37.44
2024-02-23T00:32:47.410Z,37.06
2024-02-23T00:35:16.162Z,37.36
2024-02-23T00:37:43.443Z,36.38
2024-02-23T00:40:11.568Z,37.02
2024-02-23T00:42:38.769Z,37.69
2024-02-23T00:45:06.196Z,36.48
2024-02-23T00:47:36.776Z,36.59
2024-02-23T00:50:04.178Z,36.78
2024-02-23T00:52:31.379Z,36.35
2024-02-23T00:54:59.040Z,38.31
2024-02-23T00:57:31.217Z,38.09
2024-02-23T00:59:58.938Z,37.44
2024-02-23T01:02:26.183Z,37.23
2024-02-23T01:04:58.069Z,38.71
2024-02-23T01:07:26.559Z,39.38
2024-02-23T01:09:55.191Z,39.68
2024-02-23T01:12:22.671Z,39.63
2024-02-23T01:14:50.399Z,41.78
2024-02-23T01:17:17.720Z,42.30
2024-02-23T01:19:45.795Z,43.14
2024-02-23T01:22:13.630Z,43.93
2024-02-23T01:24:40.801Z,45.41
2024-02-23T01:27:08.115Z,43.14
2024-02-23T01:29:35.611Z,42.09
2024-02-23T01:32:03.060Z,44.01
2024-02-23T01:34:30.303Z,44.86
2024-02-23T01:36:57.930Z,44.35
2024-02-23T01:39:25.170Z,43.77
2024-02-23T01:41:52.408Z,42.63
2024-02-23T01:44:21.926Z,43.43
2024-02-23T01:46:49.258Z,45.17
2024-02-23T01:49:16.638Z,43.55
2024-02-23T01:51:44.446Z,44.43
2024-02-23T01:54:11.770Z,44.45
2024-02-23T01:56:40.847Z,45.06
2024-02-23T01:59:08.523Z,44.37
2024-02-23T02:01:35.743Z,43.38
2024-02-23T02:04:03.369Z,44.12
2024-02-23T02:06:30.756Z,43.48
2024-02-23T02:08:58.070Z,43.85
2024-02-23T02:11:25.642Z,44.53
2024-02-23T02:13:52.929Z,45.83
2024-02-23T02:16:20.124Z,45.93
2024-02-23T02:18:47.668Z,46.97
2024-02-23T02:21:15.124Z,46.19
2024-02-23T02:23:42.657Z,45.26
2024-02-23T02:26:10.317Z,45.71
2024-02-23T02:28:37.574Z,46.86
2024-02-23T02:31:04.782Z,45.86
2024-02-23T02:33:32.358Z,44.75
2024-02-23T02:36:00.209Z,45.24
2024-02-23T02:38:27.573Z,45.23
2024-02-23T02:40:55.106Z,45.71
2024-02-23T02:43:22.549Z,45.47
2024-02-23T02:45:50.197Z,44.52
2024-02-23T02:48:17.828Z,44.32
2024-02-23T02:50:45.564Z,43.72
2024-02-23T02:53:12.841Z,43.78
2024-02-23T02:55:42.320Z,44.53
2024-02-23T02:58:09.753Z,43.21
2024-02-23T03:00:36.924Z,44.68
2024-02-23T03:03:04.564Z,44.85
2024-02-23T03:05:31.878Z,45.19
2024-02-23T03:07:59.344Z,44.47
2024-02-23T03:10:26.825Z,44.48
2024-02-23T03:12:54.024Z,44.69
2024-02-23T03:15:21.264Z,44.86
2024-02-23T03:17:48.852Z,44.68
2024-02-23T03:20:16.794Z,44.13
2024-02-23T03:22:44.071Z,44.96
2024-02-23T03:25:11.561Z,44.87
2024-02-23T03:27:38.796Z,43.74
2024-02-23T03:30:06.448Z,43.53
2024-02-23T03:32:37.724Z,43.96
2024-02-23T03:35:06.154Z,43.87
2024-02-23T03:37:33.761Z,44.03
2024-02-23T03:40:01.973Z,44.84
2024-02-23T03:42:29.274Z,44.19
2024-02-23T03:44:56.748Z,44.44
2024-02-23T03:47:24.039Z,44.40
2024-02-23T03:49:51.334Z,46.25
2024-02-23T03:52:18.876Z,47.48
2024-02-23T03:54:46.127Z,48.96
2024-02-23T03:57:13.289Z,48.35
2024-02-23T03:59:42.276Z,49.02
2024-02-23T04:02:10.060Z,48.32
2024-02-23T04:04:37.677Z,48.33
2024-02-23T04:07:05.047Z,49.25
2024-02-23T04:09:32.892Z,50.07
2024-02-23T04:12:00.673Z,50.01
2024-02-23T04:14:28.048Z,48.51
2024-02-23T04:16:55.888Z,48.89
2024-02-23T04:19:23.480Z,49.32
2024-02-23T04:21:50.700Z,51.79
2024-02-23T04:24:17.946Z,50.52
2024-02-23T04:26:45.393Z,50.57
2024-02-23T04:29:12.892Z,51.56
2024-02-23T04:31:40.113Z,52.00
2024-02-23T04:34:07.665Z,53.83
2024-02-23T04:36:34.902Z,51.23
2024-02-23T04:39:02.141Z,49.97
2024-02-23T04:41:30.076Z,49.46
2024-02-23T04:44:03.116Z,49.11
2024-02-23T04:46:31.929Z,50.59
2024-02-23T04:48:59.194Z,49.98
2024-02-23T04:51:26.624Z,50.98
2024-02-23T04:53:54.138Z,52.11
2024-02-23T04:56:24.079Z,50.88
2024-02-23T04:58:52.335Z,49.45
2024-02-23T05:01:20.652Z,48.03
2024-02-23T05:03:48.363Z,48.91
2024-02-23T05:06:15.600Z,48.14
2024-02-23T05:08:43.289Z,48.20
2024-02-23T05:11:10.781Z,48.19
2024-02-23T05:13:40.443Z,48.09
2024-02-23T05:16:07.978Z,46.57
2024-02-23T05:18:35.437Z,46.67
2024-02-23T05:21:02.860Z,46.71
2024-02-23T05:23:30.410Z,47.36
2024-02-23T05:25:57.733Z,46.14
2024-02-23T05:28:24.932Z,45.13
2024-02-23T05:30:52.722Z,44.07
2024-02-23T05:33:21.888Z,43.78
2024-02-23T05:35:52.072Z,43.82
2024-02-23T05:38:19.962Z,43.63
2024-02-23T05:40:47.245Z,43.75
2024-02-23T05:43:14.507Z,43.68
2024-02-23T05:45:42.072Z,43.65
2024-02-23T05:48:09.397Z,43.03
2024-02-23T05:50:36.764Z,43.89
2024-02-23T05:53:05.868Z,43.76
2024-02-23T05:55:33.680Z,43.24
2024-02-23T05:58:00.921Z,43.94
2024-02-23T06:00:31.031Z,42.99
2024-02-23T06:03:51.618Z,43.34
2024-02-23T06:06:51.787Z,43.99
2024-02-23T06:09:20.350Z,44.90
2024-02-23T06:11:47.912Z,45.16
2024-02-23T06:14:15.341Z,44.72
2024-02-23T06:16:42.888Z,44.71
2024-02-23T06:19:10.211Z,45.93
2024-02-23T06:21:37.854Z,45.21
2024-02-23T06:24:06.217Z,44.22
2024-02-23T06:26:33.650Z,45.93
2024-02-23T06:29:01.317Z,44.30
2024-02-23T06:31:28.986Z,45.69
2024-02-23T06:33:56.588Z,46.05
2024-02-23T06:36:23.849Z,44.75
2024-02-23T06:38:51.431Z,44.74
2024-02-23T06:41:18.913Z,45.28
2024-02-23T06:43:46.282Z,46.07
2024-02-23T06:46:13.789Z,44.67
2024-02-23T06:48:41.193Z,45.31
2024-02-23T06:51:11.400Z,45.61
2024-02-23T06:53:39.503Z,45.75
2024-02-23T06:56:07.137Z,44.52
2024-02-23T06:58:34.447Z,44.62
2024-02-23T07:01:04.319Z,45.73
2024-02-23T07:03:31.701Z,45.06
2024-02-23T07:05:59.058Z,44.71
2024-02-23T07:08:26.758Z,46.43
2024-02-23T07:10:54.475Z,46.16
2024-02-23T07:13:22.305Z,46.74
2024-02-23T07:15:50.623Z,45.57
2024-02-23T07:18:17.957Z,46.83
2024-02-23T07:20:45.653Z,47.80
2024-02-23T07:23:13.513Z,47.53
2024-02-23T07:25:42.155Z,48.23
2024-02-23T07:28:09.601Z,47.27
2024-02-23T07:30:37.385Z,46.75
2024-02-23T07:33:04.718Z,47.72
2024-02-23T07:35:32.088Z,47.83
2024-02-23T07:37:59.740Z,48.77
2024-02-23T07:40:26.983Z,49.44
2024-02-23T07:42:54.187Z,49.43
2024-02-23T07:45:21.678Z,48.85
2024-02-23T07:47:49.084Z,49.80
2024-02-23T07:50:17.248Z,49.80
2024-02-23T07:52:44.800Z,49.12
2024-02-23T07:57:40.787Z,49.61
2024-02-23T08:00:10.956Z,50.19
2024-02-23T08:02:39.719Z,49.12
2024-02-23T08:05:08.668Z,48.32
2024-02-23T08:07:36.482Z,48.24
2024-02-23T08:10:06.460Z,49.04
2024-02-23T08:12:35.830Z,48.88
2024-02-23T08:15:05.653Z,47.41
2024-02-23T08:17:33.084Z,47.72
2024-02-23T08:20:01.197Z,47.99
2024-02-23T08:22:32.861Z,47.21
2024-02-23T08:25:01.603Z,47.05
2024-02-23T08:27:29.074Z,47.07
2024-02-23T08:29:56.404Z,46.29
2024-02-23T08:32:24.026Z,46.59
2024-02-23T08:34:54.044Z,45.49
2024-02-23T08:37:21.646Z,45.34
2024-02-23T08:39:49.206Z,46.28
2024-02-23T08:42:16.446Z,45.30
2024-02-23T08:44:43.811Z,45.00
2024-02-23T08:47:11.371Z,45.69
2024-02-23T08:49:38.698Z,46.00
2024-02-23T08:52:06.278Z,45.44
2024-02-23T08:54:33.882Z,45.39
2024-02-23T08:57:01.159Z,45.14
2024-02-23T08:59:28.471Z,45.96
2024-02-23T09:01:56.043Z,44.15
2024-02-23T09:04:23.456Z,44.98
2024-02-23T09:06:51.967Z,44.81
2024-02-23T09:09:19.468Z,44.57
2024-02-23T09:11:48.527Z,44.28
2024-02-23T09:14:16.449Z,45.38
2024-02-23T09:16:44.006Z,45.41
2024-02-23T09:19:11.404Z,44.64
2024-02-23T09:21:38.710Z,45.41
2024-02-23T09:24:06.557Z,45.08
2024-02-23T09:26:34.089Z,45.98
2024-02-23T09:29:01.637Z,45.23
2024-02-23T09:31:32.849Z,45.03
2024-02-23T09:34:00.465Z,45.58
2024-02-23T09:36:27.792Z,45.26
2024-02-23T09:38:55.278Z,45.81
2024-02-23T09:41:23.566Z,45.89
2024-02-23T09:43:52.020Z,45.13
2024-02-23T09:46:20.237Z,45.04
2024-02-23T09:48:49.040Z,44.03
2024-02-23T09:51:16.334Z,43.10
2024-02-23T09:53:43.973Z,43.70
2024-02-23T09:56:11.569Z,44.55
2024-02-23T09:58:39.243Z,44.92
2024-02-23T10:01:06.805Z,43.88
2024-02-23T10:03:34.635Z,44.90
2024-02-23T10:06:06.085Z,44.75
2024-02-23T10:08:33.508Z,44.68
2024-02-23T10:11:02.376Z,45.06
2024-02-23T10:13:30.931Z,45.37
2024-02-23T10:16:10.200Z,44.89
2024-02-23T10:18:44.652Z,44.47
2024-02-23T10:21:13.192Z,44.85
2024-02-23T10:23:40.558Z,44.71
2024-02-23T10:26:08.472Z,44.70
2024-02-23T10:28:36.383Z,43.64
2024-02-23T10:31:03.973Z,42.87
2024-02-23T10:33:32.456Z,43.85
2024-02-23T10:36:01.271Z,43.87
2024-02-23T10:38:29.957Z,44.01
2024-02-23T10:40:58.150Z,43.82
2024-02-23T10:43:29.395Z,43.86
2024-02-23T10:45:56.899Z,44.54
2024-02-23T10:48:24.508Z,42.95
2024-02-23T10:50:51.822Z,43.74
2024-02-23T10:53:20.410Z,43.50
2024-02-23T10:55:47.958Z,43.36
2024-02-23T10:58:17.191Z,43.20
2024-02-23T11:00:47.059Z,43.03
2024-02-23T11:03:15.105Z,43.34
2024-02-23T11:05:42.535Z,44.01
2024-02-23T11:08:10.089Z,43.01
2024-02-23T11:10:44.230Z,42.93
2024-02-23T11:13:11.593Z,42.15
2024-02-23T11:15:42.597Z,42.49
2024-02-23T11:18:43.655Z,41.84
2024-02-23T11:21:12.028Z,41.88
2024-02-23T11:23:43.682Z,42.23
2024-02-23T11:26:11.540Z,41.30
2024-02-23T11:28:45.379Z,41.91
2024-02-23T11:31:13.634Z,41.10
2024-02-23T11:33:41.496Z,40.17
2024-02-23T11:36:10.434Z,41.50
2024-02-23T11:38:37.862Z,40.06
2024-02-23T11:41:05.800Z,40.93
2024-02-23T11:43:34.882Z,40.86
2024-02-23T11:46:02.138Z,40.61
2024-02-23T11:48:29.837Z,41.29
2024-02-23T11:50:58.028Z,41.39
2024-02-23T11:53:26.590Z,41.80
2024-02-23T11:55:54.463Z,40.94
2024-02-23T11:58:21.655Z,41.80
2024-02-23T12:00:49.030Z,42.79
2024-02-23T12:03:17.521Z,40.96
2024-02-23T12:05:45.014Z,41.02
2024-02-23T12:08:12.508Z,40.66
2024-02-23T12:10:40.472Z,40.84
2024-02-23T12:13:07.884Z,41.36
2024-02-23T12:15:35.109Z,40.53
2024-02-23T12:18:04.486Z,41.12
2024-02-23T12:20:34.402Z,41.59
2024-02-23T12:23:02.151Z,42.22
2024-02-23T12:25:29.752Z,42.24
2024-02-23T12:27:58.104Z,42.14
2024-02-23T12:30:27.760Z,40.86
2024-02-23T12:33:06.084Z,41.63
2024-02-23T12:35:33.549Z,42.66
2024-02-23T12:38:01.270Z,41.05
2024-02-23T12:40:30.321Z,41.02
2024-02-23T12:42:58.202Z,41.02
2024-02-23T12:45:26.995Z,42.33
2024-02-23T12:47:54.455Z,41.26
2024-02-23T12:50:22.171Z,42.28
2024-02-23T12:52:50.226Z,41.53
2024-02-23T12:55:17.443Z,41.58
2024-02-23T12:57:44.777Z,41.91
2024-02-23T13:00:12.616Z,41.39
2024-02-23T13:02:40.186Z,41.96
2024-02-23T13:05:08.109Z,41.63
2024-02-23T13:07:35.975Z,41.70
2024-02-23T13:10:03.406Z,41.11
2024-02-23T13:12:30.702Z,41.39
2024-02-23T13:14:58.207Z,41.18
2024-02-23T13:17:25.598Z,41.18
2024-02-23T13:20:05.231Z,41.70
2024-02-23T13:22:38.563Z,40.13
2024-02-23T13:25:05.867Z,40.69
2024-02-23T13:27:33.113Z,40.88
2024-02-23T13:30:00.620Z,40.28
2024-02-23T13:32:28.059Z,40.14
2024-02-23T13:34:55.417Z,41.17
2024-02-23T13:37:22.926Z,41.58
2024-02-23T13:39:50.245Z,40.79
2024-02-23T13:42:17.462Z,41.55
2024-02-23T13:44:45.014Z,41.73
2024-02-23T13:47:12.809Z,41.36
2024-02-23T13:49:40.541Z,41.71
2024-02-23T13:52:08.037Z,40.88
2024-02-23T13:54:35.264Z,41.34
2024-02-23T13:57:02.669Z,41.50
2024-02-23T13:59:32.915Z,41.86
2024-02-23T14:02:00.241Z,42.08
2024-02-23T14:04:27.820Z,41.77
2024-02-23T14:06:55.859Z,41.86
2024-02-23T14:09:23.092Z,41.33
2024-02-23T14:11:50.686Z,42.37
2024-02-23T14:14:18.633Z,42.18
2024-02-23T14:16:46.454Z,42.40
2024-02-23T14:19:14.133Z,42.36
2024-02-23T14:21:41.918Z,42.52
2024-02-23T14:24:09.352Z,42.27
2024-02-23T14:26:37.061Z,41.82
2024-02-23T14:29:04.551Z,41.93
2024-02-23T14:31:33.444Z,42.72
2024-02-23T14:34:01.135Z,42.57
2024-02-23T14:36:28.603Z,41.17
2024-02-23T14:38:56.035Z,41.99
2024-02-23T14:41:24.172Z,41.96
2024-02-23T14:43:52.537Z,43.04
2024-02-23T14:46:20.169Z,42.88
2024-02-23T14:48:49.716Z,42.11
2024-02-23T14:51:17.157Z,41.20
2024-02-23T14:53:44.458Z,42.92
2024-02-23T14:56:12.091Z,42.52
2024-02-23T14:58:39.983Z,42.87
2024-02-23T15:01:07.667Z,42.40
2024-02-23T15:03:35.276Z,41.97
2024-02-23T15:06:03.125Z,41.09
2024-02-23T15:08:30.592Z,41.75
2024-02-23T15:10:58.271Z,41.81
2024-02-23T15:13:25.605Z,41.93
2024-02-23T15:15:52.863Z,41.69
2024-02-23T15:18:20.375Z,41.68
2024-02-23T15:20:48.784Z,42.52
2024-02-23T15:23:16.081Z,42.08
2024-02-23T15:25:45.235Z,42.36
2024-02-23T15:28:14.542Z,42.48
2024-02-23T15:30:41.901Z,42.15
2024-02-23T15:33:09.578Z,41.49
2024-02-23T15:35:37.405Z,41.85
2024-02-23T15:38:04.736Z,41.95
2024-02-23T15:40:32.309Z,41.10
2024-02-23T15:43:01.459Z,41.82
2024-02-23T15:45:30.435Z,41.90
2024-02-23T15:47:58.188Z,41.76
2024-02-23T15:50:42.909Z,41.26
2024-02-23T15:53:16.331Z,40.47
2024-02-23T15:55:43.663Z,41.31
2024-02-23T15:58:11.894Z,41.35
2024-02-23T16:00:40.923Z,41.12
2024-02-23T16:03:08.412Z,40.58
2024-02-23T16:05:35.808Z,41.64
2024-02-23T16:08:04.838Z,40.40
2024-02-23T16:10:32.829Z,40.90
2024-02-23T16:13:00.873Z,41.43
2024-02-23T16:15:29.179Z,41.38
2024-02-23T16:17:57.751Z,40.87
2024-02-23T16:20:25.492Z,41.44
2024-02-23T16:22:53.871Z,41.35
2024-02-23T16:25:21.364Z,41.81
2024-02-23T16:27:48.627Z,42.11
2024-02-23T16:30:15.932Z,42.21
2024-02-23T16:32:43.675Z,42.50
2024-02-23T16:35:16.911Z,41.70
2024-02-23T16:37:44.788Z,41.09
2024-02-23T16:40:29.028Z,41.00
2024-02-23T16:42:57.396Z,40.62
2024-02-23T16:45:27.070Z,41.00
2024-02-23T16:47:55.499Z,41.46
2024-02-23T16:50:23.168Z,40.98
2024-02-23T16:52:50.433Z,40.89
2024-02-23T16:55:17.729Z,41.08
2024-02-23T16:57:45.366Z,41.36
2024-02-23T17:00:12.848Z,41.94
2024-02-23T17:02:40.213Z,41.02
2024-02-23T17:05:09.482Z,41.55
2024-02-23T17:07:38.432Z,41.51
2024-02-23T17:10:06.343Z,41.05
2024-02-23T17:12:34.114Z,39.95
2024-02-23T17:15:01.953Z,40.72
2024-02-23T17:17:29.255Z,40.34
2024-02-23T17:19:57.029Z,40.49
2024-02-23T17:22:26.064Z,40.88
2024-02-23T17:24:53.578Z,40.58
2024-02-23T17:27:22.199Z,40.15
2024-02-23T17:29:49.775Z,40.39
2024-02-23T17:32:17.070Z,40.35
2024-02-23T17:34:44.639Z,39.81
2024-02-23T17:37:12.113Z,39.88
2024-02-23T17:39:39.853Z,40.81
2024-02-23T17:42:07.406Z,39.98
2024-02-23T17:44:34.639Z,40.13
2024-02-23T17:47:02.867Z,40.57
2024-02-23T17:49:31.551Z,40.62
2024-02-23T17:51:58.805Z,41.99
2024-02-23T17:54:26.065Z,41.09
2024-02-23T17:56:53.840Z,41.83
2024-02-23T17:59:21.267Z,41.00
2024-02-23T18:01:48.771Z,40.92
2024-02-23T18:04:16.308Z,40.62
2024-02-23T18:06:43.651Z,40.76
2024-02-23T18:09:10.958Z,40.35
2024-02-23T18:11:39.446Z,41.20
2024-02-23T18:14:06.869Z,41.33
2024-02-23T18:16:34.065Z,40.46
2024-02-23T18:19:05.028Z,40.78
2024-02-23T18:21:32.616Z,40.61
2024-02-23T18:23:59.828Z,40.97
2024-02-23T18:26:27.339Z,40.27
2024-02-23T18:28:54.553Z,40.44
2024-02-23T18:31:21.850Z,40.28
2024-02-23T18:33:50.971Z,40.83
2024-02-23T18:36:19.110Z,39.16
2024-02-23T18:38:46.391Z,39.47
2024-02-23T18:41:13.989Z,40.13
2024-02-23T18:43:41.476Z,39.04
2024-02-23T18:46:09.501Z,39.86
2024-02-23T18:48:37.194Z,39.65
2024-02-23T18:51:04.836Z,39.75
2024-02-23T18:53:32.266Z,39.32
2024-02-23T18:55:59.974Z,39.96
2024-02-23T18:58:27.205Z,40.62
2024-02-23T19:00:57.886Z,40.83
2024-02-23T19:03:25.592Z,41.49
2024-02-23T19:05:52.984Z,40.50
2024-02-23T19:08:20.891Z,41.64
2024-02-23T19:10:48.496Z,41.16
2024-02-23T19:13:15.750Z,40.83
2024-02-23T19:15:44.935Z,42.17
2024-02-23T19:18:12.552Z,40.47
2024-02-23T19:20:39.981Z,40.88
2024-02-23T19:23:07.251Z,42.45
2024-02-23T19:25:36.250Z,41.35
2024-02-23T19:28:03.939Z,40.90
2024-02-23T19:30:36.981Z,41.81
2024-02-23T19:33:04.795Z,41.92
2024-02-23T19:35:32.115Z,41.21
2024-02-23T19:37:59.373Z,40.67
2024-02-23T19:40:26.901Z,39.90
2024-02-23T19:42:54.753Z,40.41
2024-02-23T19:45:22.457Z,40.62
2024-02-23T19:47:50.064Z,41.36
2024-02-23T19:50:17.819Z,41.20
2024-02-23T19:52:45.102Z,39.98
2024-02-23T19:55:12.627Z,40.32
2024-02-23T19:57:39.888Z,40.82
2024-02-23T20:00:07.561Z,40.45
2024-02-23T20:02:35.164Z,40.80
2024-02-23T20:05:02.631Z,39.65
2024-02-23T20:07:30.170Z,40.49
2024-02-23T20:09:59.504Z,41.23
2024-02-23T20:12:28.162Z,41.49
2024-02-23T20:14:56.038Z,40.64
2024-02-23T20:17:23.832Z,39.85
2024-02-23T20:19:51.254Z,40.26
2024-02-23T20:22:20.195Z,40.39
2024-02-23T20:24:47.864Z,39.36
2024-02-23T20:27:15.227Z,39.71
2024-02-23T20:29:42.444Z,39.54
2024-02-23T20:32:16.510Z,40.16
2024-02-23T20:34:50.594Z,39.72
2024-02-23T20:37:18.197Z,39.09
2024-02-23T20:39:45.427Z,39.24
2024-02-23T20:42:12.780Z,39.30
2024-02-23T20:44:40.542Z,39.48
2024-02-23T20:47:08.145Z,39.50
2024-02-23T20:49:35.557Z,39.92
2024-02-23T20:52:03.065Z,39.27
2024-02-23T20:54:30.334Z,39.83
2024-02-23T20:56:57.697Z,40.46
2024-02-23T20:59:25.935Z,39.89
2024-02-23T21:01:53.600Z,39.79
2024-02-23T21:04:20.898Z,39.52
2024-02-23T21:06:48.647Z,39.75
2024-02-23T21:09:17.207Z,39.35
2024-02-23T21:11:44.559Z,38.80
2024-02-23T21:14:14.982Z,38.54
2024-02-23T21:16:42.204Z,39.64
2024-02-23T21:19:09.971Z,40.15
2024-02-23T21:21:37.566Z,38.94
2024-02-23T21:24:05.420Z,39.02
2024-02-23T21:26:32.714Z,39.28
2024-02-23T21:29:00.477Z,40.11
2024-02-23T21:31:27.736Z,39.12
2024-02-23T21:33:56.642Z,38.90
2024-02-23T21:36:24.156Z,39.16
2024-02-23T21:38:51.522Z,39.42
2024-02-23T21:41:18.785Z,39.38
2024-02-23T21:43:46.236Z,39.01
2024-02-23T21:46:13.683Z,38.93
2024-02-23T21:48:42.151Z,39.00
2024-02-23T21:51:10.089Z,40.41
2024-02-23T21:53:37.826Z,39.69
2024-02-23T21:56:05.448Z,39.32
2024-02-23T21:58:33.425Z,38.95
2024-02-23T22:01:01.067Z,39.77
2024-02-23T22:03:29.371Z,39.50
2024-02-23T22:05:56.745Z,39.32
2024-02-23T22:08:24.060Z,39.29
2024-02-23T22:10:51.730Z,39.33
2024-02-23T22:13:18.946Z,39.32
2024-02-23T22:15:46.162Z,38.99
2024-02-23T22:18:14.454Z,39.45
2024-02-23T22:20:41.872Z,39.65
2024-02-23T22:23:11.416Z,39.67
2024-02-23T22:25:38.965Z,39.37
2024-02-23T22:28:06.359Z,39.48
2024-02-23T22:30:33.555Z,39.51
2024-02-23T22:33:01.272Z,37.90
2024-02-23T22:35:28.622Z,39.42
2024-02-23T22:37:55.846Z,39.06
2024-02-23T22:40:24.824Z,39.07
2024-02-23T22:42:52.131Z,38.35
2024-02-23T22:45:19.445Z,38.19
2024-02-23T22:47:48.144Z,38.31
2024-02-23T22:50:16.793Z,38.63
2024-02-23T22:52:44.029Z,38.76
2024-02-23T22:55:11.511Z,38.40
2024-02-23T22:57:39.650Z,38.04
2024-02-23T23:00:10.436Z,37.74
2024-02-23T23:02:40.061Z,38.00
2024-02-23T23:05:08.242Z,37.91
2024-02-23T23:07:37.090Z,37.58
2024-02-23T23:10:05.451Z,36.95
2024-02-23T23:12:33.018Z,37.47
2024-02-23T23:15:00.638Z,37.07
2024-02-23T23:17:28.948Z,36.45
2024-02-23T23:19:56.444Z,36.32
2024-02-23T23:22:23.880Z,36.32
2024-02-23T23:24:51.591Z,36.79
2024-02-23T23:27:18.803Z,36.90
2024-02-23T23:29:46.179Z,36.80
2024-02-23T23:32:14.030Z,36.58
2024-02-23T23:34:44.140Z,36.95
2024-02-23T23:37:11.504Z,36.36
2024-02-23T23:39:39.027Z,35.41
2024-02-23T23:42:06.252Z,36.12
2024-02-23T23:44:33.507Z,36.09
2024-02-23T23:47:00.976Z,35.92
2024-02-23T23:50:08.022Z,36.86
2024-02-23T23:52:36.703Z,35.96
2024-02-23T23:55:04.089Z,36.17
2024-02-23T23:57:32.997Z,36.68
